Sirio Tres — EA8085 — position and weather

sailwx.info

Track history (hours):
 
Tides and Currents Weather Stations Pressure Air Temp Water Temp Dewpoint Dewpoint Depression Visibility Wind Speed Wind Dir Waves Ship Positions

Sirio Tres

Last reported at 2017-Sep-24 05:58 UTC. Time now 2017-Oct-16 22:34 UTC.
Position N 36°54' W 008°04'.
Warning: this ship's position is 22 days out of date.

Length 13 m.

Type: Sailing vessel. MMSI: 224129990.

Date/timePositionNaut miles runAvg speedWind from/ knotsBaromVisibWave heightAir tempDewpointWater temp
2017-Sep-24 05:58N 36°54' W 008°04'4 7.2
2017-Sep-24 05:26N 36°54' W 008°09'3 7.2
2017-Sep-24 04:59N 36°55' W 008°13'4 7.4
2017-Sep-24 04:30N 36°55' W 008°17'9 6.9
2017-Sep-24 03:09N 36°56' W 008°29'2 6.9
2017-Sep-24 02:55N 36°56' W 008°31'3 6.8
2017-Sep-24 02:30N 36°57' W 008°35'3 6.7
2017-Sep-24 02:00N 36°57' W 008°39'3 6.8
2017-Sep-24 01:29N 36°57' W 008°43'9 6.9
2017-Sep-24 00:13N 36°57' W 008°54'1 7.2
2017-Sep-24 00:01N 36°57' W 008°56'4 7.4
2017-Sep-23 23:30N 36°58' W 009°00'4 7.9
2017-Sep-23 23:00N 37°01' W 009°03'4 7.2
2017-Sep-23 22:28N 37°05' W 009°06'3 6.7
2017-Sep-23 21:59N 37°08' W 009°07'4 7.1
2017-Sep-23 21:29N 37°11' W 009°09'4 7.3
2017-Sep-23 20:57N 37°15' W 009°11'3 7.3
2017-Sep-23 20:30N 37°18' W 009°12'4 7.3
2017-Sep-23 20:00N 37°21' W 009°14'  
2017-Sep-20 11:47N 38°42' W 009°10'0 0.3
2017-Sep-20 11:29N 38°42' W 009°10'0 0.7
2017-Sep-20 10:58N 38°42' W 009°10'3 6.4
2017-Sep-20 10:30N 38°41' W 009°14'3 5.5
2017-Sep-20 10:00N 38°41' W 009°17'3 5.8
2017-Sep-20 09:29N 38°41' W 009°21'3 5.9
2017-Sep-20 09:00N 38°42' W 009°24'1 0.9
2017-Sep-20 08:25N 38°42' W 009°25'0 0.0
2017-Sep-19 07:48N 38°42' W 009°25'1 2.6
2017-Sep-19 07:30N 38°41' W 009°25'3 5.0
2017-Sep-19 06:59N 38°42' W 009°29'2 3.9
2017-Sep-19 06:30N 38°43' W 009°30'3 6.3
2017-Sep-19 06:00N 38°46' W 009°32'3 5.5
2017-Sep-19 05:30N 38°48' W 009°34'4 7.6
2017-Sep-19 05:00N 38°52' W 009°35'4 8.2
2017-Sep-19 04:30N 38°56' W 009°36'4 8.0
2017-Sep-19 04:00N 39°00' W 009°36'4 8.1
2017-Sep-19 03:30N 39°04' W 009°35'4 7.6
2017-Sep-19 03:00N 39°08' W 009°34'4 7.5
2017-Sep-19 02:30N 39°11' W 009°33'4 7.3
2017-Sep-19 02:00N 39°15' W 009°31'4 7.6
2017-Sep-19 01:30N 39°18' W 009°30'  
Track history (hours):
 
Tides and Currents Weather Stations Pressure Air Temp Water Temp Dewpoint Dewpoint Depression Visibility Wind Speed Wind Dir Waves Ship Positions

Sirio Tres

Last reported at 2017-Sep-24 05:58 UTC. Time now 2017-Oct-16 22:34 UTC.
Position N 36°54' W 008°04'.
Warning: this ship's position is 22 days out of date.

Length 13 m.

Type: Sailing vessel. MMSI: 224129990.

Date/timePositionNaut miles runAvg speedWind from/ knotsBaromVisibWave heightAir tempDewpointWater temp
2017-Sep-24 05:58N 36°54' W 008°04'4 7.2
2017-Sep-24 05:26N 36°54' W 008°09'3 7.2
2017-Sep-24 04:59N 36°55' W 008°13'4 7.4
2017-Sep-24 04:30N 36°55' W 008°17'9 6.9
2017-Sep-24 03:09N 36°56' W 008°29'2 6.9
2017-Sep-24 02:55N 36°56' W 008°31'3 6.8
2017-Sep-24 02:30N 36°57' W 008°35'3 6.7
2017-Sep-24 02:00N 36°57' W 008°39'3 6.8
2017-Sep-24 01:29N 36°57' W 008°43'9 6.9
2017-Sep-24 00:13N 36°57' W 008°54'1 7.2
2017-Sep-24 00:01N 36°57' W 008°56'4 7.4
2017-Sep-23 23:30N 36°58' W 009°00'4 7.9
2017-Sep-23 23:00N 37°01' W 009°03'4 7.2
2017-Sep-23 22:28N 37°05' W 009°06'3 6.7
2017-Sep-23 21:59N 37°08' W 009°07'4 7.1
2017-Sep-23 21:29N 37°11' W 009°09'4 7.3
2017-Sep-23 20:57N 37°15' W 009°11'3 7.3
2017-Sep-23 20:30N 37°18' W 009°12'4 7.3
2017-Sep-23 20:00N 37°21' W 009°14'  
2017-Sep-20 11:47N 38°42' W 009°10'0 0.3
2017-Sep-20 11:29N 38°42' W 009°10'0 0.7
2017-Sep-20 10:58N 38°42' W 009°10'3 6.4
2017-Sep-20 10:30N 38°41' W 009°14'3 5.5
2017-Sep-20 10:00N 38°41' W 009°17'3 5.8
2017-Sep-20 09:29N 38°41' W 009°21'3 5.9
2017-Sep-20 09:00N 38°42' W 009°24'1 0.9
2017-Sep-20 08:25N 38°42' W 009°25'0 0.0
2017-Sep-19 07:48N 38°42' W 009°25'1 2.6
2017-Sep-19 07:30N 38°41' W 009°25'3 5.0
2017-Sep-19 06:59N 38°42' W 009°29'2 3.9
2017-Sep-19 06:30N 38°43' W 009°30'3 6.3
2017-Sep-19 06:00N 38°46' W 009°32'3 5.5
2017-Sep-19 05:30N 38°48' W 009°34'4 7.6
2017-Sep-19 05:00N 38°52' W 009°35'4 8.2
2017-Sep-19 04:30N 38°56' W 009°36'4 8.0
2017-Sep-19 04:00N 39°00' W 009°36'4 8.1
2017-Sep-19 03:30N 39°04' W 009°35'4 7.6
2017-Sep-19 03:00N 39°08' W 009°34'4 7.5
2017-Sep-19 02:30N 39°11' W 009°33'4 7.3
2017-Sep-19 02:00N 39°15' W 009°31'4 7.6
2017-Sep-19 01:30N 39°18' W 009°30'  

Dump ship's entire track history